Time;durP1;ratioP1;P1;durP2;ratioP2;P2;SDS_P1;SDS_P2;PMS_P1;PMS_P2;Temp;Humidity;BMP_temperature;BMP_pressure;BME280_temperature;BME280_humidity;BME280_pressure;Samples;Min_cycle;Max_cycle;Signal;HPM_P1;HPM_P2
2023/08/11 00:02:05;;;;;;;16.23;6.10;;;20.60;99.90;;;;;;5057378;28;20025;-75
2023/08/11 00:04:31;;;;;;;22.67;5.82;;;20.60;99.90;;;;;;5059859;28;20017;-75
2023/08/11 00:06:57;;;;;;;14.40;5.57;;;20.60;99.90;;;;;;5058444;28;20435;-75
2023/08/11 00:09:23;;;;;;;18.35;5.65;;;20.60;99.90;;;;;;5059295;28;20074;-75
2023/08/11 00:11:50;;;;;;;17.30;5.18;;;20.60;99.90;;;;;;5058250;28;20025;-75
2023/08/11 00:14:16;;;;;;;18.42;6.22;;;20.50;99.90;;;;;;5054268;28;20029;-75
2023/08/11 00:16:42;;;;;;;12.32;5.13;;;20.50;99.90;;;;;;5053098;28;20040;-75
2023/08/11 00:19:08;;;;;;;21.20;5.80;;;20.50;99.90;;;;;;5058737;28;20657;-75
2023/08/11 00:21:33;;;;;;;17.58;5.90;;;20.40;99.90;;;;;;5058323;28;20451;-75
2023/08/11 00:23:59;;;;;;;22.65;6.30;;;20.40;99.90;;;;;;5046390;28;20041;-74
2023/08/11 00:26:25;;;;;;;19.17;7.43;;;20.40;99.90;;;;;;5057795;28;20108;-74
2023/08/11 00:28:50;;;;;;;20.67;8.82;;;20.40;99.90;;;;;;5059267;28;20232;-75
2023/08/11 00:31:16;;;;;;;19.98;5.93;;;20.40;99.90;;;;;;5055735;28;20064;-74
2023/08/11 00:33:46;;;;;;;11.25;4.75;;;20.40;99.90;;;;;;5057515;28;20021;-75
2023/08/11 00:36:13;;;;;;;16.65;5.05;;;20.30;99.90;;;;;;5058149;28;20028;-75
2023/08/11 00:38:40;;;;;;;21.50;6.22;;;20.30;99.90;;;;;;5058128;28;20047;-75
2023/08/11 00:41:06;;;;;;;15.90;5.57;;;20.30;99.90;;;;;;5057691;28;20402;-74
2023/08/11 00:43:32;;;;;;;22.00;6.15;;;20.30;99.90;;;;;;5056579;28;20053;-75
2023/08/11 00:46:10;;;;;;;11.98;5.20;;;20.20;99.90;;;;;;5045662;28;20036;-75
2023/08/11 00:48:40;;;;;;;12.73;5.95;;;20.20;99.90;;;;;;5057033;28;20025;-75
2023/08/11 00:51:06;;;;;;;17.15;5.57;;;20.20;99.90;;;;;;5046165;28;20103;-75
2023/08/11 00:53:33;;;;;;;11.68;5.68;;;20.10;99.90;;;;;;5057314;28;20071;-75
2023/08/11 00:56:03;;;;;;;11.10;4.72;;;20.10;99.90;;;;;;5057542;28;20099;-75
2023/08/11 00:58:30;;;;;;;18.38;5.68;;;20.10;99.90;;;;;;5056888;28;20493;-75
2023/08/11 01:00:57;;;;;;;14.70;5.95;;;20.10;99.90;;;;;;5058615;28;20107;-75
2023/08/11 01:03:23;;;;;;;12.32;6.00;;;20.10;99.90;;;;;;5055827;28;20029;-75
2023/08/11 01:05:59;;;;;;;14.70;4.90;;;20.10;99.90;;;;;;5059090;28;20046;-75
2023/08/11 01:08:36;;;;;;;18.88;5.10;;;20.10;99.90;;;;;;5057266;28;20108;-75
2023/08/11 01:11:21;;;;;;;17.80;5.32;;;20.10;99.90;;;;;;5044137;28;20049;-75
2023/08/11 01:14:02;;;;;;;21.88;5.43;;;20.00;99.90;;;;;;5062715;28;20021;-75
2023/08/11 01:16:29;;;;;;;21.17;5.05;;;20.00;99.90;;;;;;5061149;28;20029;-75
2023/08/11 01:18:55;;;;;;;12.68;5.43;;;19.90;99.90;;;;;;5061053;28;20067;-75
2023/08/11 01:21:24;;;;;;;18.50;5.80;;;19.90;99.90;;;;;;5059065;28;20028;-75
2023/08/11 01:23:50;;;;;;;13.10;5.20;;;19.90;99.90;;;;;;5061751;28;20033;-75
2023/08/11 01:26:16;;;;;;;13.52;5.70;;;19.90;99.90;;;;;;5060288;28;20029;-75
2023/08/11 01:28:42;;;;;;;16.63;5.30;;;19.80;99.90;;;;;;5045828;28;20018;-75
2023/08/11 01:31:08;;;;;;;16.23;5.20;;;19.70;99.90;;;;;;5053041;28;20028;-75
2023/08/11 01:33:34;;;;;;;13.50;4.72;;;19.70;99.90;;;;;;5045876;28;20029;-75
2023/08/11 01:35:59;;;;;;;14.57;5.13;;;19.70;99.90;;;;;;5053050;28;20103;-75
2023/08/11 01:38:25;;;;;;;15.00;5.05;;;19.60;99.90;;;;;;5062716;28;20025;-75
2023/08/11 01:40:51;;;;;;;15.82;5.32;;;19.60;99.90;;;;;;5060599;28;20086;-75
2023/08/11 01:43:17;;;;;;;19.20;5.55;;;19.50;99.90;;;;;;5063291;28;20032;-74
2023/08/11 01:45:43;;;;;;;15.50;5.47;;;19.50;99.90;;;;;;5061205;28;20445;-75
2023/08/11 01:48:10;;;;;;;18.08;5.10;;;19.40;99.90;;;;;;5050498;28;20087;-75
2023/08/11 01:50:37;;;;;;;15.15;5.40;;;19.40;99.90;;;;;;5059795;28;20078;-75
2023/08/11 01:53:03;;;;;;;15.63;5.15;;;19.30;99.90;;;;;;5062819;28;20049;-75
2023/08/11 01:55:28;;;;;;;15.85;5.47;;;19.30;99.90;;;;;;5060976;28;20029;-75
2023/08/11 01:57:55;;;;;;;17.40;6.22;;;19.20;99.90;;;;;;5063521;28;20029;-75
2023/08/11 02:00:21;;;;;;;18.13;5.80;;;19.20;99.90;;;;;;5059603;28;20036;-74
2023/08/11 02:02:48;;;;;;;16.70;4.95;;;19.20;99.90;;;;;;5063035;28;20805;-74
2023/08/11 02:05:16;;;;;;;15.75;5.15;;;19.10;99.90;;;;;;5059616;28;20033;-75
2023/08/11 02:07:44;;;;;;;16.65;5.18;;;19.10;99.90;;;;;;5063476;28;20028;-75
2023/08/11 02:10:11;;;;;;;11.13;4.38;;;19.10;99.90;;;;;;5061071;28;20420;-75
2023/08/11 02:12:38;;;;;;;16.55;5.43;;;19.10;99.90;;;;;;5062928;28;20025;-74
2023/08/11 02:15:05;;;;;;;17.25;5.40;;;19.20;99.90;;;;;;5061820;28;20401;-75
2023/08/11 02:17:31;;;;;;;12.30;5.05;;;19.10;99.90;;;;;;5061736;28;20114;-74
2023/08/11 02:19:58;;;;;;;20.05;5.80;;;19.20;99.90;;;;;;5061712;28;20540;-75
2023/08/11 02:22:24;;;;;;;20.30;5.00;;;19.20;99.90;;;;;;5061821;28;20017;-75
2023/08/11 02:24:50;;;;;;;20.23;5.72;;;19.20;99.90;;;;;;5061600;28;20024;-75
2023/08/11 02:27:17;;;;;;;22.73;5.07;;;19.20;99.90;;;;;;5070248;28;20528;-75
2023/08/11 02:29:43;;;;;;;17.10;5.35;;;19.20;99.90;;;;;;5072092;28;20096;-75
2023/08/11 02:32:09;;;;;;;17.70;5.22;;;19.20;99.90;;;;;;5062371;28;20017;-74
2023/08/11 02:34:36;;;;;;;18.48;5.60;;;19.10;99.90;;;;;;5071004;28;20036;-75
2023/08/11 02:37:02;;;;;;;15.85;4.90;;;19.10;99.90;;;;;;5070330;28;20063;-75
2023/08/11 02:39:28;;;;;;;14.25;5.20;;;19.00;99.90;;;;;;5074078;28;20028;-75
2023/08/11 02:41:55;;;;;;;12.88;5.57;;;19.00;99.90;;;;;;5070605;28;20052;-74
2023/08/11 02:44:22;;;;;;;17.23;5.95;;;18.90;99.90;;;;;;5069056;28;20029;-74
2023/08/11 02:46:47;;;;;;;11.13;4.95;;;18.80;99.90;;;;;;5065016;28;20513;-74
2023/08/11 02:49:13;;;;;;;17.10;5.60;;;18.70;99.90;;;;;;5067505;28;20037;-74
2023/08/11 02:51:39;;;;;;;16.45;6.03;;;18.70;99.90;;;;;;5065429;28;20104;-74
2023/08/11 02:54:04;;;;;;;16.98;6.32;;;18.70;99.90;;;;;;5068790;28;20025;-74
2023/08/11 02:56:30;;;;;;;14.65;5.88;;;18.60;99.90;;;;;;5063971;28;20032;-74
2023/08/11 02:58:56;;;;;;;21.58;6.55;;;18.60;99.90;;;;;;5067873;28;20024;-76
2023/08/11 03:01:23;;;;;;;19.85;5.82;;;18.60;99.90;;;;;;5076522;28;20016;-75
2023/08/11 03:03:49;;;;;;;16.75;5.53;;;18.60;99.90;;;;;;5065171;28;20021;-75
2023/08/11 03:06:15;;;;;;;19.13;5.30;;;18.50;99.90;;;;;;5069267;28;20028;-75
2023/08/11 03:08:41;;;;;;;13.70;5.72;;;18.50;99.90;;;;;;5056719;28;20029;-74
2023/08/11 03:11:06;;;;;;;13.45;6.47;;;18.50;99.90;;;;;;5056975;28;20532;-74
2023/08/11 03:13:32;;;;;;;17.80;6.10;;;18.50;99.90;;;;;;5063204;28;20048;-75
2023/08/11 03:15:58;;;;;;;15.52;5.90;;;18.40;99.90;;;;;;5064318;28;20024;-74
2023/08/11 03:18:25;;;;;;;14.45;6.43;;;18.40;99.90;;;;;;5064084;28;20029;-74
2023/08/11 03:20:54;;;;;;;12.73;5.82;;;18.40;99.90;;;;;;5059847;28;20619;-74
2023/08/11 03:23:20;;;;;;;16.52;6.25;;;18.40;99.90;;;;;;5069675;28;20732;-74
2023/08/11 03:25:46;;;;;;;20.98;6.93;;;18.30;99.90;;;;;;5050802;28;20017;-75
2023/08/11 03:28:11;;;;;;;17.38;6.78;;;18.30;99.90;;;;;;5069032;28;20039;-74
2023/08/11 03:30:37;;;;;;;16.40;6.07;;;18.20;99.90;;;;;;5062520;28;20029;-74
2023/08/11 03:33:03;;;;;;;17.02;6.72;;;18.20;99.90;;;;;;5062175;28;20028;-74
2023/08/11 03:35:31;;;;;;;22.02;7.78;;;18.20;99.90;;;;;;5059952;28;20504;-75
2023/08/11 03:37:57;;;;;;;21.15;6.75;;;18.20;99.90;;;;;;5063263;28;20063;-74
2023/08/11 03:40:23;;;;;;;19.98;6.70;;;18.20;99.90;;;;;;5059839;28;20029;-75
2023/08/11 03:42:48;;;;;;;18.00;6.00;;;18.20;99.90;;;;;;5062927;28;20025;-74
2023/08/11 03:45:14;;;;;;;17.48;6.88;;;18.20;99.90;;;;;;5059782;28;20031;-74
2023/08/11 03:47:41;;;;;;;16.55;6.03;;;18.10;99.90;;;;;;5068738;28;20025;-74
2023/08/11 03:50:08;;;;;;;14.98;5.88;;;18.10;99.90;;;;;;5068127;28;20078;-74
2023/08/11 03:52:35;;;;;;;14.15;6.80;;;18.00;99.90;;;;;;5072157;28;20034;-74
2023/08/11 03:55:01;;;;;;;18.55;6.53;;;18.00;99.90;;;;;;5068651;28;20056;-74
2023/08/11 03:57:27;;;;;;;14.32;6.82;;;17.90;99.90;;;;;;5071161;28;20024;-74
2023/08/11 03:59:53;;;;;;;15.95;6.70;;;17.90;99.90;;;;;;5058810;28;20028;-74
2023/08/11 04:02:18;;;;;;;10.23;5.57;;;17.90;99.90;;;;;;5061342;28;20405;-74
2023/08/11 04:04:45;;;;;;;14.02;6.95;;;17.80;99.90;;;;;;5064337;28;20481;-74
2023/08/11 04:07:11;;;;;;;17.00;6.03;;;17.80;99.90;;;;;;5069732;28;20008;-74
2023/08/11 04:09:41;;;;;;;16.58;6.55;;;17.70;99.90;;;;;;5063979;28;20025;-74
2023/08/11 04:12:07;;;;;;;17.27;6.57;;;17.70;99.90;;;;;;5069226;28;20031;-74
2023/08/11 04:14:32;;;;;;;17.38;6.88;;;17.70;99.90;;;;;;5061737;28;20276;-74
2023/08/11 04:16:58;;;;;;;16.67;7.07;;;17.60;99.90;;;;;;5057680;28;20028;-74
2023/08/11 04:19:24;;;;;;;12.55;6.85;;;17.60;99.90;;;;;;5064906;28;20033;-74
2023/08/11 04:21:50;;;;;;;16.05;6.88;;;17.60;99.90;;;;;;5061890;28;20062;-74
2023/08/11 04:24:17;;;;;;;15.95;6.85;;;17.60;99.90;;;;;;5067543;28;20519;-74
2023/08/11 04:26:43;;;;;;;19.45;6.88;;;17.50;99.90;;;;;;5070568;28;20027;-74
2023/08/11 04:29:09;;;;;;;17.80;6.57;;;17.60;99.90;;;;;;5068632;28;20449;-74
2023/08/11 04:31:35;;;;;;;24.52;7.30;;;17.60;99.90;;;;;;5069507;28;20024;-74
2023/08/11 04:34:00;;;;;;;20.98;6.70;;;17.60;99.90;;;;;;5068206;28;20107;-74
2023/08/11 04:36:27;;;;;;;14.20;6.18;;;17.70;99.90;;;;;;5070903;28;20056;-73
2023/08/11 04:38:53;;;;;;;17.92;7.32;;;17.80;99.90;;;;;;5068292;28;20021;-74
2023/08/11 04:41:19;;;;;;;18.73;6.63;;;17.80;99.90;;;;;;5070685;28;20566;-73
2023/08/11 04:43:45;;;;;;;17.25;6.65;;;17.90;99.90;;;;;;5068617;28;20021;-74
2023/08/11 04:46:10;;;;;;;23.40;7.45;;;18.00;99.90;;;;;;5071103;28;20055;-74
2023/08/11 04:48:36;;;;;;;19.73;7.63;;;18.00;99.90;;;;;;5073636;28;20021;-73
2023/08/11 04:51:01;;;;;;;17.80;6.53;;;18.10;99.90;;;;;;5077187;28;20076;-74
2023/08/11 04:53:27;;;;;;;28.83;8.35;;;18.10;99.90;;;;;;5074632;28;20063;-73
2023/08/11 04:55:53;;;;;;;22.00;6.00;;;18.20;99.90;;;;;;5076436;28;20024;-74
2023/08/11 04:58:18;;;;;;;19.65;6.35;;;18.20;99.90;;;;;;5074028;28;20511;-73
2023/08/11 05:00:44;;;;;;;15.63;5.63;;;18.20;99.90;;;;;;5076531;28;20162;-73
2023/08/11 05:03:10;;;;;;;18.15;6.03;;;18.20;99.90;;;;;;5074783;28;20043;-73
2023/08/11 05:05:36;;;;;;;14.10;5.97;;;18.20;99.90;;;;;;5077168;28;20021;-74
2023/08/11 05:08:02;;;;;;;18.02;6.38;;;18.20;99.90;;;;;;5074740;28;20443;-74
2023/08/11 05:10:28;;;;;;;14.23;6.45;;;18.20;99.90;;;;;;5075955;28;20035;-74
2023/08/11 05:12:54;;;;;;;16.77;7.15;;;18.30;99.90;;;;;;5074511;28;20024;-73
2023/08/11 05:15:19;;;;;;;15.20;6.82;;;18.30;99.90;;;;;;5081000;28;20055;-73
2023/08/11 05:17:45;;;;;;;17.50;6.28;;;18.40;99.90;;;;;;5067223;28;20489;-74
2023/08/11 05:20:14;;;;;;;14.48;5.95;;;18.40;99.90;;;;;;5074365;28;20520;-74
2023/08/11 05:22:40;;;;;;;19.58;6.35;;;18.50;99.90;;;;;;5060796;28;20048;-73
2023/08/11 05:25:06;;;;;;;14.70;5.82;;;18.60;99.90;;;;;;5063355;28;20036;-73
2023/08/11 05:27:33;;;;;;;18.90;6.35;;;18.70;99.90;;;;;;5066652;28;20032;-73
2023/08/11 05:29:58;;;;;;;18.48;6.65;;;18.80;99.90;;;;;;5079716;28;20787;-73
2023/08/11 05:32:24;;;;;;;20.45;6.20;;;18.80;99.90;;;;;;5076461;28;20064;-74
2023/08/11 05:34:50;;;;;;;15.52;6.13;;;18.90;99.90;;;;;;5077487;28;20031;-73
2023/08/11 05:37:16;;;;;;;15.38;6.38;;;19.00;99.90;;;;;;5077765;28;20035;-74
2023/08/11 05:39:43;;;;;;;23.08;7.55;;;19.00;99.90;;;;;;5077508;28;20424;-74
2023/08/11 05:42:09;;;;;;;18.60;6.30;;;19.10;99.90;;;;;;5076440;28;20028;-73
2023/08/11 05:44:35;;;;;;;20.17;5.60;;;19.20;99.90;;;;;;5078907;28;20036;-73
2023/08/11 05:47:01;;;;;;;14.02;5.78;;;19.30;99.90;;;;;;5073094;28;20055;-73
2023/08/11 05:49:27;;;;;;;20.50;7.47;;;19.30;99.90;;;;;;5068735;28;20381;-73
2023/08/11 05:51:52;;;;;;;15.90;6.38;;;19.40;99.90;;;;;;5065023;28;20029;-74
2023/08/11 05:54:18;;;;;;;18.63;7.10;;;19.50;99.90;;;;;;5068497;28;20032;-74
2023/08/11 05:56:43;;;;;;;16.85;6.18;;;19.60;99.90;;;;;;5065231;28;20025;-74
2023/08/11 05:59:09;;;;;;;15.68;6.30;;;19.70;99.90;;;;;;5058659;28;20076;-74
2023/08/11 06:01:35;;;;;;;17.85;6.95;;;19.70;99.90;;;;;;5055987;28;20511;-74
2023/08/11 06:04:02;;;;;;;14.15;6.68;;;19.80;99.90;;;;;;5054771;28;20090;-74
2023/08/11 06:06:28;;;;;;;23.63;8.57;;;19.90;99.90;;;;;;5057103;28;20025;-74
2023/08/11 06:08:54;;;;;;;29.88;10.45;;;19.90;99.90;;;;;;5057363;28;20499;-73
2023/08/11 06:11:21;;;;;;;17.98;8.00;;;20.00;99.90;;;;;;5056542;28;20039;-74
2023/08/11 06:13:46;;;;;;;19.48;7.38;;;20.10;99.90;;;;;;5060327;28;20489;-74
2023/08/11 06:16:12;;;;;;;21.95;8.00;;;20.10;99.90;;;;;;5058357;28;20025;-74
2023/08/11 06:18:38;;;;;;;19.10;7.43;;;20.10;99.90;;;;;;5057206;28;20029;-74
2023/08/11 06:21:05;;;;;;;19.33;7.13;;;20.20;99.90;;;;;;5058626;28;20017;-73
2023/08/11 06:23:31;;;;;;;18.95;6.32;;;20.20;99.90;;;;;;5057788;28;20049;-74
2023/08/11 06:25:57;;;;;;;17.48;6.55;;;20.20;99.90;;;;;;5060360;28;20389;-74
2023/08/11 06:28:23;;;;;;;14.02;6.55;;;20.30;99.90;;;;;;5057695;28;20044;-74
2023/08/11 06:30:49;;;;;;;20.63;6.10;;;20.40;99.90;;;;;;5059634;28;20025;-74
2023/08/11 06:33:15;;;;;;;20.23;5.93;;;20.40;99.90;;;;;;5060403;28;20029;-74
2023/08/11 06:35:42;;;;;;;15.52;5.07;;;20.50;99.90;;;;;;5059177;28;20083;-74
2023/08/11 06:38:09;;;;;;;16.02;6.10;;;20.50;99.90;;;;;;5058116;28;20059;-74
2023/08/11 06:40:35;;;;;;;24.35;5.05;;;20.60;99.90;;;;;;5057063;28;20083;-73
2023/08/11 06:43:01;;;;;;;18.05;5.25;;;20.60;99.90;;;;;;5055383;28;20257;-73
2023/08/11 06:45:27;;;;;;;15.82;6.47;;;20.80;99.90;;;;;;5058951;28;20023;-74
2023/08/11 06:47:53;;;;;;;19.33;5.22;;;20.80;99.90;;;;;;5060375;28;20025;-74
2023/08/11 06:50:19;;;;;;;16.73;5.72;;;20.90;99.90;;;;;;5057068;28;20028;-74
2023/08/11 06:52:45;;;;;;;19.42;5.22;;;21.00;99.90;;;;;;5059251;28;20102;-75
2023/08/11 06:55:10;;;;;;;18.17;5.43;;;21.00;99.90;;;;;;5056147;28;20021;-75
2023/08/11 06:57:37;;;;;;;18.50;4.93;;;21.00;99.90;;;;;;5060008;28;20033;-75
2023/08/11 07:00:04;;;;;;;16.50;5.68;;;21.10;99.90;;;;;;5059597;28;20032;-75
2023/08/11 07:02:30;;;;;;;15.98;5.43;;;21.10;99.90;;;;;;5058053;28;20021;-75
2023/08/11 07:04:55;;;;;;;15.05;5.38;;;21.10;99.90;;;;;;5059478;28;20077;-74
2023/08/11 07:07:22;;;;;;;14.90;5.38;;;21.10;99.90;;;;;;5061028;28;20035;-74
2023/08/11 07:09:47;;;;;;;22.45;5.80;;;21.10;99.90;;;;;;5056959;28;20411;-75
2023/08/11 07:12:13;;;;;;;24.73;6.00;;;21.10;99.90;;;;;;5056327;28;20447;-75
2023/08/11 07:14:40;;;;;;;23.65;5.68;;;21.20;99.90;;;;;;5058259;28;20548;-75
2023/08/11 07:17:06;;;;;;;13.63;5.13;;;21.30;99.90;;;;;;5059651;28;20021;-75
2023/08/11 07:19:31;;;;;;;19.33;5.45;;;21.30;99.90;;;;;;5056376;28;20174;-75
2023/08/11 07:21:57;;;;;;;16.95;4.93;;;21.40;99.90;;;;;;5053962;28;20029;-75
2023/08/11 07:24:22;;;;;;;15.05;4.80;;;21.40;99.90;;;;;;5055254;28;20191;-75
2023/08/11 07:26:48;;;;;;;14.68;5.18;;;21.40;99.90;;;;;;5058289;28;20531;-75
2023/08/11 07:29:14;;;;;;;17.15;5.40;;;21.50;99.90;;;;;;5054600;28;20492;-75
2023/08/11 07:31:39;;;;;;;26.60;6.30;;;21.70;99.90;;;;;;5058527;28;20024;-75
2023/08/11 07:34:05;;;;;;;15.15;5.65;;;21.80;99.90;;;;;;5057262;28;20032;-75
2023/08/11 07:36:31;;;;;;;19.95;4.97;;;21.80;99.90;;;;;;5055116;28;20020;-76
2023/08/11 07:38:57;;;;;;;19.40;5.70;;;21.80;99.90;;;;;;5054831;28;20381;-73
2023/08/11 07:41:23;;;;;;;22.08;6.22;;;21.90;99.90;;;;;;5058372;28;20403;-72
2023/08/11 07:43:48;;;;;;;21.40;4.93;;;22.10;99.90;;;;;;5055339;28;20033;-73
2023/08/11 07:46:14;;;;;;;15.35;5.10;;;22.40;99.90;;;;;;5056761;28;20533;-73
2023/08/11 07:48:40;;;;;;;20.63;5.22;;;22.40;99.90;;;;;;5055846;28;20051;-73
2023/08/11 07:51:05;;;;;;;17.00;5.07;;;22.60;99.90;;;;;;5053025;28;20040;-74
2023/08/11 07:53:31;;;;;;;17.75;4.28;;;22.80;99.90;;;;;;5060795;28;20025;-74
2023/08/11 07:55:58;;;;;;;17.63;4.72;;;22.90;99.90;;;;;;5054540;28;20036;-73
2023/08/11 07:58:24;;;;;;;21.98;4.90;;;23.00;99.90;;;;;;5060308;28;20025;-74
2023/08/11 08:00:50;;;;;;;10.45;3.90;;;23.00;99.90;;;;;;5055136;28;20043;-75
2023/08/11 08:03:15;;;;;;;17.25;4.70;;;23.00;99.90;;;;;;5053099;28;20586;-75
2023/08/11 08:05:41;;;;;;;16.67;4.95;;;22.80;99.90;;;;;;5056036;28;20746;-74
2023/08/11 08:08:07;;;;;;;12.82;3.92;;;22.70;99.90;;;;;;5055442;28;20473;-74
2023/08/11 08:10:33;;;;;;;18.13;4.97;;;22.70;99.90;;;;;;5053998;28;20033;-74
2023/08/11 08:12:58;;;;;;;14.43;4.82;;;22.60;99.90;;;;;;5055590;28;20036;-74
2023/08/11 08:15:26;;;;;;;18.33;5.70;;;22.80;99.90;;;;;;5058332;28;20511;-74
2023/08/11 08:17:52;;;;;;;13.88;4.05;;;23.00;99.90;;;;;;5055096;28;20033;-75
2023/08/11 08:20:18;;;;;;;12.38;4.72;;;23.30;99.90;;;;;;5055222;28;20104;-74
2023/08/11 08:22:44;;;;;;;15.65;5.20;;;23.50;99.90;;;;;;5055465;28;20041;-74
2023/08/11 08:25:10;;;;;;;17.40;4.55;;;23.60;99.90;;;;;;5054994;28;20017;-74
2023/08/11 08:27:40;;;;;;;19.73;5.55;;;23.70;99.90;;;;;;5058356;28;20036;-75
2023/08/11 08:30:07;;;;;;;15.23;4.47;;;23.70;99.90;;;;;;5059066;28;21109;-73
2023/08/11 08:32:33;;;;;;;12.20;3.78;;;23.70;99.90;;;;;;5054260;28;20562;-73
2023/08/11 08:34:59;;;;;;;17.40;5.00;;;23.70;99.90;;;;;;5055569;28;20438;-73
2023/08/11 08:37:28;;;;;;;13.65;4.43;;;23.70;99.90;;;;;;5052122;28;20090;-73
2023/08/11 08:39:54;;;;;;;15.93;3.97;;;23.60;99.90;;;;;;5053093;28;20091;-74
2023/08/11 08:42:21;;;;;;;13.38;4.15;;;23.70;99.90;;;;;;5056661;28;20393;-75
2023/08/11 08:44:52;;;;;;;17.13;5.13;;;23.70;99.90;;;;;;5054550;28;20558;-74
2023/08/11 08:47:20;;;;;;;17.25;4.35;;;23.70;99.90;;;;;;5058087;28;20118;-74
2023/08/11 08:49:48;;;;;;;16.60;4.95;;;23.80;99.90;;;;;;5055954;28;20503;-74
2023/08/11 08:52:15;;;;;;;12.55;3.78;;;23.90;99.90;;;;;;5058186;28;20028;-75
2023/08/11 08:54:42;;;;;;;18.63;4.47;;;24.10;99.90;;;;;;5055184;28;20025;-74
2023/08/11 08:57:10;;;;;;;18.48;5.13;;;24.20;99.90;;;;;;5057606;28;20083;-74
2023/08/11 08:59:37;;;;;;;12.55;4.53;;;24.20;99.90;;;;;;5050982;28;20071;-74
2023/08/11 09:02:04;;;;;;;15.70;4.22;;;24.20;99.90;;;;;;5058396;28;20572;-74
2023/08/11 09:04:32;;;;;;;13.57;4.28;;;24.30;99.90;;;;;;5054941;28;20021;-74
2023/08/11 09:06:59;;;;;;;11.38;4.30;;;24.40;99.90;;;;;;5053679;28;20144;-75
2023/08/11 09:09:27;;;;;;;18.33;4.95;;;24.70;99.90;;;;;;5052655;28;20405;-76
2023/08/11 09:11:53;;;;;;;13.85;4.30;;;24.80;99.90;;;;;;5058984;28;20029;-77
2023/08/11 09:14:20;;;;;;;14.90;4.57;;;24.90;99.90;;;;;;5056193;28;20078;-75
2023/08/11 09:16:46;;;;;;;19.38;4.93;;;24.90;99.90;;;;;;5053858;28;20125;-77
2023/08/11 09:19:13;;;;;;;13.88;4.65;;;25.00;99.90;;;;;;5052613;28;20027;-75
2023/08/11 09:21:43;;;;;;;14.93;4.80;;;24.90;99.90;;;;;;5053376;28;20033;-75
2023/08/11 09:24:13;;;;;;;12.15;4.35;;;25.00;99.90;;;;;;5051331;28;20041;-76
2023/08/11 09:26:45;;;;;;;;;;;25.30;99.90;;;;;;5055805;28;20029;-75
2023/08/11 09:29:11;;;;;;;18.90;5.20;;;25.40;99.90;;;;;;5049669;28;19909;-76
2023/08/11 09:31:39;;;;;;;12.98;3.75;;;25.30;99.90;;;;;;5052020;28;20021;-76
2023/08/11 09:34:17;;;;;;;10.88;4.18;;;25.20;99.90;;;;;;5057254;28;20031;-77
2023/08/11 09:36:43;;;;;;;14.15;4.30;;;25.20;99.90;;;;;;5060441;28;20029;-78
2023/08/11 09:39:10;;;;;;;15.95;5.00;;;25.10;99.90;;;;;;5055891;28;20029;-77
2023/08/11 09:41:44;;;;;;;13.63;3.67;;;25.30;99.90;;;;;;5056500;28;20028;-78
2023/08/11 09:44:20;;;;;;;15.38;4.35;;;25.40;99.90;;;;;;5058257;28;20078;-78
2023/08/11 09:46:47;;;;;;;9.13;4.35;;;25.60;99.90;;;;;;5060621;28;20017;-76
2023/08/11 09:49:13;;;;;;;16.88;4.43;;;25.70;99.90;;;;;;5058586;28;20029;-77
2023/08/11 09:51:40;;;;;;;13.88;4.28;;;25.90;99.90;;;;;;5058327;28;20029;-76
2023/08/11 09:54:08;;;;;;;12.85;4.80;;;25.90;99.90;;;;;;5058916;28;20032;-77
2023/08/11 09:56:40;;;;;;;16.98;4.75;;;26.10;99.90;;;;;;5061062;28;20048;-76
2023/08/11 09:59:15;;;;;;;12.15;3.90;;;26.30;99.90;;;;;;5058398;28;20147;-76
2023/08/11 10:01:42;;;;;;;13.60;4.82;;;26.20;99.90;;;;;;5060096;28;20029;-78
2023/08/11 10:04:12;;;;;;;13.55;4.38;;;26.10;99.90;;;;;;5055069;28;20497;-77
2023/08/11 10:06:43;;;;;;;14.77;4.82;;;25.90;99.90;;;;;;5060220;28;20044;-76
2023/08/11 10:09:12;;;;;;;20.25;5.35;;;25.90;99.90;;;;;;5058441;28;20052;-76
2023/08/11 10:11:40;;;;;;;14.23;4.45;;;25.90;99.90;;;;;;5059800;28;20017;-78
2023/08/11 10:14:06;;;;;;;14.60;4.18;;;25.90;99.90;;;;;;5059376;28;20039;-79
2023/08/11 10:16:32;;;;;;;13.45;4.32;;;26.20;99.90;;;;;;5060155;28;20810;-77
2023/08/11 10:19:00;;;;;;;11.05;4.30;;;26.40;99.90;;;;;;5058244;28;20017;-77
2023/08/11 10:21:26;;;;;;;17.98;4.72;;;26.40;99.90;;;;;;5063600;28;20029;-76
2023/08/11 10:23:56;;;;;;;13.30;4.13;;;26.50;99.90;;;;;;5061969;28;20157;-76
2023/08/11 10:26:23;;;;;;;20.23;5.43;;;26.40;99.90;;;;;;5061506;28;20131;-77
2023/08/11 10:28:50;;;;;;;13.88;4.07;;;26.40;99.90;;;;;;5060967;28;20104;-76
2023/08/11 10:31:16;;;;;;;11.57;4.10;;;26.50;99.90;;;;;;5061424;28;20083;-78
2023/08/11 10:33:49;;;;;;;15.30;4.72;;;26.50;99.90;;;;;;5059143;28;20033;-78
2023/08/11 10:36:17;;;;;;;13.00;5.70;;;26.70;99.90;;;;;;5052774;28;20021;-77
2023/08/11 10:38:44;;;;;;;9.15;4.43;;;26.80;99.90;;;;;;5063740;28;20025;-77
2023/08/11 10:41:10;;;;;;;12.82;4.57;;;26.90;99.90;;;;;;5057509;28;20036;-78
2023/08/11 10:43:38;;;;;;;14.65;4.70;;;26.90;99.90;;;;;;5057929;28;20017;-77
2023/08/11 10:46:26;;;;;;;10.75;4.45;;;26.90;99.90;;;;;;5059329;28;20032;-77
2023/08/11 10:48:58;;;;;;;10.82;4.38;;;26.90;99.90;;;;;;5058619;28;20043;-77
2023/08/11 10:51:40;;;;;;;14.90;5.50;;;27.10;99.90;;;;;;5059081;28;20033;-85
2023/08/11 10:54:06;;;;;;;15.70;4.50;;;27.00;99.90;;;;;;5060938;28;20028;-79
2023/08/11 10:56:33;;;;;;;15.30;4.55;;;26.90;99.90;;;;;;5060600;28;20094;-79
2023/08/11 10:59:08;;;;;;;13.57;3.80;;;26.80;99.90;;;;;;5055009;28;20036;-78
2023/08/11 11:01:38;;;;;;;14.43;4.75;;;26.80;99.90;;;;;;5056092;28;20040;-78
2023/08/11 11:04:06;;;;;;;13.98;4.72;;;26.90;99.90;;;;;;5058679;28;20021;-77
2023/08/11 11:06:33;;;;;;;14.75;4.75;;;27.10;99.90;;;;;;5057228;28;20044;-77
2023/08/11 11:08:59;;;;;;;8.43;3.85;;;27.20;99.90;;;;;;5059232;28;20028;-77
2023/08/11 11:11:25;;;;;;;14.23;4.07;;;27.40;99.90;;;;;;5058706;28;20405;-78
2023/08/11 11:13:51;;;;;;;11.98;4.53;;;27.60;99.90;;;;;;5058785;28;20043;-78
2023/08/11 11:16:19;;;;;;;13.73;4.38;;;27.70;99.90;;;;;;5055277;28;20035;-77
2023/08/11 11:18:47;;;;;;;12.90;4.65;;;27.70;99.90;;;;;;5060505;28;20017;-77
2023/08/11 11:21:14;;;;;;;10.55;4.45;;;27.80;99.90;;;;;;5054402;28;20032;-78
2023/08/11 11:23:44;;;;;;;10.88;3.90;;;27.90;99.90;;;;;;5062272;28;20505;-77
2023/08/11 11:26:10;;;;;;;13.52;4.03;;;27.90;99.90;;;;;;5057538;28;20382;-78
2023/08/11 11:28:35;;;;;;;13.13;4.38;;;27.70;99.90;;;;;;5055834;28;20044;-78
2023/08/11 11:31:01;;;;;;;12.40;4.00;;;27.80;99.90;;;;;;5056779;28;20436;-79
2023/08/11 11:33:28;;;;;;;9.27;4.25;;;27.90;99.90;;;;;;5057056;28;20032;-77
2023/08/11 11:35:53;;;;;;;8.70;3.55;;;27.90;99.90;;;;;;5063005;28;20032;-80
2023/08/11 11:38:20;;;;;;;9.75;4.70;;;28.00;99.90;;;;;;5057032;28;20033;-82
2023/08/11 11:40:49;;;;;;;10.43;3.70;;;27.90;99.90;;;;;;5054045;28;20129;-78
2023/08/11 11:43:14;;;;;;;8.13;3.20;;;27.90;99.90;;;;;;5055772;28;20029;-77
2023/08/11 11:45:40;;;;;;;11.82;4.43;;;28.00;99.90;;;;;;5058743;28;20103;-77
2023/08/11 11:48:06;;;;;;;14.38;3.88;;;28.00;99.90;;;;;;5054868;28;20457;-77
2023/08/11 11:50:34;;;;;;;13.32;4.53;;;28.10;99.90;;;;;;5055021;28;20031;-78
2023/08/11 11:53:00;;;;;;;7.40;3.58;;;28.20;99.90;;;;;;5060002;28;20470;-77
2023/08/11 11:55:26;;;;;;;8.75;3.45;;;28.40;99.90;;;;;;5058639;28;20055;-78
2023/08/11 11:57:52;;;;;;;14.65;5.30;;;28.40;99.90;;;;;;5050865;28;20029;-78
2023/08/11 12:00:18;;;;;;;9.15;3.75;;;28.50;99.90;;;;;;5053809;28;20040;-78
2023/08/11 12:02:45;;;;;;;8.80;3.67;;;28.70;99.90;;;;;;5054160;28;20021;-78
2023/08/11 12:05:12;;;;;;;9.38;3.53;;;28.70;99.90;;;;;;5055010;28;20052;-78
2023/08/11 12:07:38;;;;;;;9.55;3.67;;;28.80;99.90;;;;;;5055640;28;20028;-78
2023/08/11 12:10:05;;;;;;;14.45;4.20;;;29.00;99.90;;;;;;5056914;28;20036;-77
2023/08/11 12:12:31;;;;;;;13.82;3.58;;;29.10;99.90;;;;;;5053307;28;20067;-78
2023/08/11 12:15:05;;;;;;;10.32;3.47;;;29.10;99.90;;;;;;5053591;28;20114;-79
2023/08/11 12:17:32;;;;;;;9.27;3.72;;;29.20;99.90;;;;;;5054266;28;20043;-78
2023/08/11 12:20:01;;;;;;;7.05;3.75;;;29.10;99.90;;;;;;5052613;28;20029;-78
2023/08/11 12:22:27;;;;;;;7.40;3.10;;;29.20;99.90;;;;;;5050891;28;20094;-76
2023/08/11 12:24:53;;;;;;;11.63;3.60;;;29.30;98.60;;;;;;5054697;28;20032;-78
2023/08/11 12:27:19;;;;;;;7.55;3.22;;;29.20;98.20;;;;;;5054807;28;20090;-75
2023/08/11 12:29:44;;;;;;;8.52;3.85;;;29.10;98.70;;;;;;5054282;28;20033;-76
2023/08/11 12:32:10;;;;;;;11.02;3.88;;;29.10;97.30;;;;;;5057050;28;20029;-76
2023/08/11 12:34:36;;;;;;;7.70;3.40;;;29.20;97.40;;;;;;5060352;28;20040;-74
2023/08/11 12:37:02;;;;;;;6.80;2.90;;;29.40;98.80;;;;;;5047779;28;20480;-74